KTAD/TAD METAR and TAF weather

Enter ICAO airport designator
Station Type Date Time Source
KTAD METAR 2019/06/16 20:54 UTC NOAA

KTAD 162054Z AUTO 18012KT 10SM CLR 26/07 A3005 RMK AO2 SLP109 T02560072 56015


Station Type Date Time Source
KTAD Decoded METAR 2019/06/16 20:54 UTC NOAA

Trinidad, Perry Stokes Airport, CO, United States (KTAD) 37-16N 104-26W
Jun 16, 2019 - 04:54 PM EDT / 2019.06.16 2054 UTC
Wind: from the S (180 degrees) at 14 MPH (12 KT):0
Visibility: 10 mile(s):0
Sky conditions: clear
Temperature: 78.1 F (25.6 C)
Dew Point: 45.0 F (7.2 C)
Relative Humidity: 30%
Pressure (altimeter): 30.05 in. Hg (1017 hPa)
Pressure tendency: 0.04 inches (1.5 hPa) lower than three hours ago
ob: KTAD 162054Z AUTO 18012KT 10SM CLR 26/07 A3005 RMK AO2 SLP109 T02560072 56015
cycle: 21

Station Type Date Time Source
KTAD TAF UTC NOAA

Error!

Example: see airport list